Cape Carteret, North Carolina
Current Conditions -  °F | °C
As of 7:19 PM on Tuesday 25 Nov 2014 (Local Time) from KNJM Reporting Station
Light Rain Light Rain  
Wind Chill: 63°   Ceiling: 1100
Heat Index: 63°   Visibility: 6mi
Dew Point: 61°   Wind: 6mph
Humidity: 93%   Direction: 110°ESE
Pressure: 30.08"   Gusts: NA
Location:  34.7017°N, 77.1399°W
Report Text: KNJM 260019Z 11005KT 6SM -RA BR BKN011 OVC018 17/16 A3008 RMK AO2 CIG 007V013 P0001 T01720161
Loading
Personal Weather Stations






























Interactive Weather Map New forecast layout! Learn more

10-Day Weather Forecast

Advertisements
Track Severe Weather on mobile